Time;durP1;ratioP1;P1;durP2;ratioP2;P2;SDS_P1;SDS_P2;PMS_P1;PMS_P2;Temp;Humidity;BMP_temperature;BMP_pressure;BME280_temperature;BME280_humidity;BME280_pressure;Samples;Min_cycle;Max_cycle;Signal;HPM_P1;HPM_P2
2022/11/23 07:38:36;;;;;;;3.63;3.20;;;2.10;99.90;;;;;;5122138;27;20272;-80
2022/11/23 07:41:02;;;;;;;3.53;2.83;;;2.20;99.90;;;;;;5121612;28;20444;-80
2022/11/23 07:43:29;;;;;;;4.73;3.07;;;2.20;99.90;;;;;;5120426;28;20262;-81
2022/11/23 07:45:56;;;;;;;6.90;2.87;;;2.30;99.90;;;;;;5121146;28;20532;-81
2022/11/23 07:48:22;;;;;;;6.07;4.17;;;2.40;99.90;;;;;;5122223;28;20411;-80
2022/11/23 07:50:50;;;;;;;6.17;2.90;;;2.40;99.90;;;;;;5120183;28;20408;-80
2022/11/23 07:53:16;;;;;;;5.50;3.60;;;2.50;99.90;;;;;;5121276;28;20410;-80
2022/11/23 07:55:41;;;;;;;4.53;2.97;;;2.70;99.90;;;;;;5123853;28;20501;-80
2022/11/23 07:58:09;;;;;;;5.97;2.47;;;2.90;99.90;;;;;;5123860;28;20191;-80
2022/11/23 08:00:34;;;;;;;2.63;2.10;;;3.60;99.90;;;;;;5119244;28;20540;-80
2022/11/23 08:03:00;;;;;;;5.53;2.30;;;4.30;99.90;;;;;;5116350;28;20422;-80
2022/11/23 08:05:26;;;;;;;5.00;2.33;;;4.90;99.90;;;;;;5116010;28;20167;-80
2022/11/23 08:07:57;;;;;;;6.70;2.17;;;5.40;99.90;;;;;;5116202;28;20183;-80
2022/11/23 08:10:23;;;;;;;2.00;1.80;;;5.90;99.90;;;;;;5116327;28;20232;-80
2022/11/23 08:12:49;;;;;;;2.23;1.70;;;6.00;99.90;;;;;;5115716;28;20660;-80
2022/11/23 08:15:15;;;;;;;3.97;1.93;;;6.20;99.90;;;;;;5115659;28;20259;-81
2022/11/23 08:17:41;;;;;;;4.93;1.83;;;6.40;99.90;;;;;;5115222;28;20219;-80
2022/11/23 08:20:07;;;;;;;4.60;1.30;;;6.40;99.90;;;;;;5115334;28;20177;-81
2022/11/23 08:22:32;;;;;;;6.23;1.67;;;6.60;99.90;;;;;;5115993;28;20186;-81
2022/11/23 08:24:58;;;;;;;4.13;1.87;;;6.80;99.90;;;;;;5115172;28;20176;-81
2022/11/23 08:27:24;;;;;;;7.30;2.40;;;7.20;99.90;;;;;;5116406;28;20198;-81
2022/11/23 08:29:49;;;;;;;6.63;1.70;;;7.30;99.90;;;;;;5116139;28;20198;-81
2022/11/23 08:32:15;;;;;;;4.67;2.00;;;7.30;99.90;;;;;;5115339;28;20175;-81
2022/11/23 08:34:42;;;;;;;3.67;1.20;;;7.30;99.90;;;;;;5115380;28;20273;-81
2022/11/23 08:37:08;;;;;;;9.63;2.03;;;7.40;99.90;;;;;;5114449;28;20331;-81
2022/11/23 08:39:34;;;;;;;2.33;1.20;;;7.50;99.90;;;;;;5114344;28;20188;-81
2022/11/23 08:42:00;;;;;;;2.20;1.43;;;7.60;99.90;;;;;;5115421;28;20262;-80
2022/11/23 08:44:25;;;;;;;3.23;1.43;;;7.50;99.90;;;;;;5115694;28;20262;-81
2022/11/23 08:46:51;;;;;;;2.73;1.30;;;7.70;99.90;;;;;;5115272;28;20200;-81
2022/11/23 08:49:17;;;;;;;1.40;1.27;;;7.60;99.90;;;;;;5104904;28;20183;-81
2022/11/23 08:51:42;;;;;;;2.77;1.40;;;7.40;99.90;;;;;;5100566;28;20172;-81
2022/11/23 08:54:08;;;;;;;8.97;2.27;;;7.20;99.90;;;;;;5100736;28;20215;-81
2022/11/23 08:56:34;;;;;;;7.37;2.30;;;7.10;99.90;;;;;;5100574;28;20297;-81
2022/11/23 08:58:59;;;;;;;2.43;1.70;;;7.10;99.90;;;;;;5100213;28;20190;-80
2022/11/23 09:01:25;;;;;;;2.37;1.67;;;7.40;99.90;;;;;;5101326;28;20181;-81
2022/11/23 09:03:51;;;;;;;5.93;2.30;;;7.70;99.90;;;;;;5101145;28;20179;-81
2022/11/23 09:06:16;;;;;;;4.27;1.77;;;8.00;99.90;;;;;;5101292;28;20200;-81
2022/11/23 09:08:42;;;;;;;8.73;2.27;;;8.30;99.90;;;;;;5102341;28;20540;-81
2022/11/23 09:11:12;;;;;;;10.03;2.87;;;8.80;99.90;;;;;;5101155;28;20180;-81
2022/11/23 09:13:38;;;;;;;4.90;1.67;;;9.00;99.90;;;;;;5101255;28;20177;-81
2022/11/23 09:16:05;;;;;;;3.90;1.93;;;8.80;99.90;;;;;;5098502;28;20632;-81
2022/11/23 09:18:32;;;;;;;5.57;2.20;;;8.60;99.90;;;;;;5097543;28;20207;-81
2022/11/23 09:21:00;;;;;;;8.97;2.10;;;8.60;99.90;;;;;;5096999;28;20200;-81
2022/11/23 09:23:26;;;;;;;5.87;1.80;;;8.70;99.90;;;;;;5096190;28;20172;-81
2022/11/23 09:25:52;;;;;;;3.63;1.53;;;8.90;99.90;;;;;;5096904;28;20675;-82
2022/11/23 09:28:18;;;;;;;5.00;2.03;;;9.50;99.90;;;;;;5101938;28;20183;-81
2022/11/23 09:30:45;;;;;;;4.47;1.87;;;9.50;99.90;;;;;;5109100;28;20168;-81
2022/11/23 09:33:12;;;;;;;9.27;2.40;;;9.30;99.90;;;;;;5114215;28;20180;-80
2022/11/23 09:35:37;;;;;;;11.23;2.53;;;9.10;99.90;;;;;;5115309;28;20192;-81
2022/11/23 09:38:03;;;;;;;4.60;1.63;;;9.40;99.90;;;;;;5115092;28;20212;-81
2022/11/23 09:40:35;;;;;;;3.10;1.17;;;9.80;99.90;;;;;;5114497;28;20205;-81
2022/11/23 09:43:22;;;;;;;2.30;1.43;;;10.10;99.90;;;;;;5113121;28;20172;-81
2022/11/23 09:45:56;;;;;;;2.63;1.50;;;10.00;99.90;;;;;;5112038;28;20197;-81
2022/11/23 09:48:35;;;;;;;1.87;1.20;;;10.40;99.90;;;;;;5111891;28;20189;-81
2022/11/23 09:51:08;;;;;;;3.33;1.40;;;10.40;99.90;;;;;;5112190;28;20175;-81
2022/11/23 09:53:59;;;;;;;2.13;1.33;;;10.30;99.90;;;;;;5112640;28;20187;-81
2022/11/23 09:56:29;;;;;;;2.60;1.23;;;9.90;99.90;;;;;;5112433;28;20259;-81
2022/11/23 09:58:57;;;;;;;3.17;1.80;;;10.10;99.90;;;;;;5113086;28;20652;-81
2022/11/23 10:01:26;;;;;;;4.90;1.80;;;10.60;99.90;;;;;;5110695;28;20175;-81
2022/11/23 10:03:52;;;;;;;1.73;1.40;;;10.70;99.90;;;;;;5111462;28;20174;-81
2022/11/23 10:06:26;;;;;;;4.43;1.97;;;10.80;99.90;;;;;;5112537;28;20276;-81
2022/11/23 10:08:51;;;;;;;2.63;1.47;;;10.90;99.90;;;;;;5111112;28;20175;-81
2022/11/23 10:11:28;;;;;;;1.47;1.17;;;11.10;99.90;;;;;;5108429;28;20235;-82
2022/11/23 10:14:19;;;;;;;3.67;1.33;;;11.20;99.90;;;;;;5113844;28;20175;-81
2022/11/23 10:16:57;;;;;;;1.87;0.87;;;10.80;99.90;;;;;;5112494;28;20204;-81
2022/11/23 10:19:26;;;;;;;4.97;1.60;;;10.60;99.90;;;;;;5112403;28;20167;-81
2022/11/23 10:22:09;;;;;;;4.50;1.30;;;10.70;99.90;;;;;;5113206;28;20202;-81
2022/11/23 10:24:49;;;;;;;6.13;1.83;;;10.90;99.90;;;;;;5112264;28;20259;-81
2022/11/23 10:27:20;;;;;;;5.47;1.57;;;11.60;99.90;;;;;;5111544;28;20198;-81
2022/11/23 10:29:47;;;;;;;2.43;1.20;;;11.70;99.90;;;;;;5111850;28;20183;-81
2022/11/23 10:32:36;;;;;;;4.57;1.43;;;12.10;99.90;;;;;;5106495;28;20175;-84
2022/11/23 10:35:10;;;;;;;7.33;1.47;;;12.60;99.90;;;;;;5104739;28;20229;-82
2022/11/23 10:37:38;;;;;;;7.83;2.17;;;12.60;99.90;;;;;;5104788;28;20235;-83
2022/11/23 10:40:18;;;;;;;3.20;1.17;;;12.80;99.90;;;;;;5104737;28;20195;-83
2022/11/23 10:42:50;;;;;;;3.37;1.30;;;13.10;99.90;;;;;;5105745;28;20584;-82
2022/11/23 10:45:25;;;;;;;1.20;0.80;;;13.70;99.90;;;;;;5104579;28;20195;-82
2022/11/23 10:47:59;;;;;;;1.90;0.70;;;13.70;97.70;;;;;;5104058;28;20180;-82
2022/11/23 10:50:36;;;;;;;3.07;1.27;;;13.40;96.20;;;;;;5104383;28;20255;-82
2022/11/23 10:53:04;;;;;;;2.73;1.17;;;13.40;96.70;;;;;;5105875;28;20160;-82
2022/11/23 10:55:33;;;;;;;2.53;1.00;;;13.70;98.70;;;;;;5106071;28;20169;-82
2022/11/23 10:57:59;;;;;;;1.63;1.00;;;13.30;96.20;;;;;;5105637;28;20165;-82
2022/11/23 11:00:27;;;;;;;1.90;1.07;;;13.00;96.90;;;;;;5104162;28;20186;-82
2022/11/23 11:02:57;;;;;;;1.30;1.10;;;13.10;98.40;;;;;;5105805;28;20200;-82
2022/11/23 11:05:34;;;;;;;1.70;1.27;;;13.40;97.80;;;;;;5103778;28;20180;-82
2022/11/23 11:08:17;;;;;;;1.97;0.93;;;14.00;96.10;;;;;;5104551;28;20199;-83
2022/11/23 11:10:50;;;;;;;3.33;0.63;;;14.00;95.90;;;;;;5106895;28;20183;-83
2022/11/23 11:13:36;;;;;;;1.20;0.70;;;14.00;94.50;;;;;;5103492;28;20161;-82
2022/11/23 11:16:05;;;;;;;2.70;0.70;;;13.70;93.30;;;;;;5100088;28;20200;-83
2022/11/23 11:18:35;;;;;;;1.87;1.10;;;14.00;95.70;;;;;;5104649;28;20551;-82
2022/11/23 11:21:15;;;;;;;2.00;1.07;;;14.00;91.70;;;;;;5105171;28;20229;-82
2022/11/23 11:23:45;;;;;;;1.20;0.80;;;14.20;94.30;;;;;;5103593;28;20164;-82
2022/11/23 11:26:22;;;;;;;0.97;0.67;;;14.10;92.50;;;;;;5102755;28;20200;-82
2022/11/23 11:28:50;;;;;;;1.13;0.73;;;14.00;91.80;;;;;;5102715;28;20179;-81
2022/11/23 11:31:49;;;;;;;1.57;1.00;;;13.70;90.40;;;;;;5103055;28;20176;-82
2022/11/23 11:34:37;;;;;;;1.23;0.73;;;13.90;92.40;;;;;;5102660;28;20576;-82
2022/11/23 11:37:29;;;;;;;0.80;0.70;;;14.20;86.00;;;;;;5103176;28;20222;-81
2022/11/23 11:40:17;;;;;;;1.17;0.60;;;14.20;87.20;;;;;;5103994;28;20173;-82
2022/11/23 11:42:45;;;;;;;2.50;1.03;;;14.70;84.60;;;;;;5104694;28;20530;-82
2022/11/23 11:45:18;;;;;;;1.40;0.90;;;15.00;84.10;;;;;;5104821;28;20173;-82
2022/11/23 11:48:12;;;;;;;4.50;3.30;;;14.50;82.60;;;;;;5103723;28;20195;-82
2022/11/23 11:50:50;;;;;;;2.00;1.30;;;14.60;81.80;;;;;;5103898;28;20168;-82
2022/11/23 11:53:42;;;;;;;1.80;0.93;;;14.70;80.70;;;;;;5102257;28;20176;-82
2022/11/23 11:56:35;;;;;;;1.20;0.90;;;14.50;81.50;;;;;;5101234;28;20223;-82
2022/11/23 11:59:19;;;;;;;0.93;0.80;;;14.30;82.00;;;;;;5101035;28;20183;-81
2022/11/23 12:01:50;;;;;;;1.00;0.80;;;13.80;78.60;;;;;;5102919;28;20204;-81
2022/11/23 12:04:26;;;;;;;0.87;0.80;;;13.60;83.30;;;;;;5102178;28;20240;-81
2022/11/23 12:07:17;;;;;;;2.60;1.10;;;13.50;79.90;;;;;;5098625;28;20203;-81
2022/11/23 12:09:48;;;;;;;1.20;0.90;;;12.50;81.90;;;;;;5097597;28;20178;-81
2022/11/23 12:12:17;;;;;;;2.03;0.90;;;12.50;82.60;;;;;;5096392;28;20162;-81
2022/11/23 12:14:44;;;;;;;1.00;0.80;;;12.10;83.40;;;;;;5094313;28;20182;-81
2022/11/23 12:17:19;;;;;;;1.03;0.60;;;11.70;83.90;;;;;;5095110;28;20242;-81
2022/11/23 12:19:58;;;;;;;2.37;0.90;;;11.30;81.20;;;;;;5092662;28;20170;-81
2022/11/23 12:22:44;;;;;;;2.67;1.43;;;11.00;87.80;;;;;;5094304;28;20165;-81
2022/11/23 12:25:26;;;;;;;4.83;0.80;;;10.60;91.50;;;;;;5105053;28;20159;-81
2022/11/23 12:28:10;;;;;;;4.20;0.90;;;10.40;92.30;;;;;;5106496;28;20238;-81
2022/11/23 12:30:53;;;;;;;1.57;1.00;;;10.20;93.20;;;;;;5105853;28;20176;-81
2022/11/23 12:33:42;;;;;;;7.13;1.17;;;10.00;93.50;;;;;;5106212;28;20172;-81
2022/11/23 12:36:22;;;;;;;1.53;0.70;;;10.00;94.50;;;;;;5106188;28;20831;-81
2022/11/23 12:38:50;;;;;;;0.90;0.77;;;9.80;95.20;;;;;;5106807;28;20192;-81
2022/11/23 12:41:21;;;;;;;2.27;0.90;;;9.60;95.70;;;;;;5105715;28;20240;-81
2022/11/23 12:44:05;;;;;;;2.17;0.83;;;9.40;95.60;;;;;;5106721;28;20175;-81
2022/11/23 12:46:53;;;;;;;1.90;0.73;;;9.40;95.80;;;;;;5106412;28;20192;-81
2022/11/23 12:49:40;;;;;;;0.90;0.60;;;9.40;94.20;;;;;;5105856;28;20169;-79
2022/11/23 12:52:06;;;;;;;0.80;0.60;;;9.30;94.80;;;;;;5106867;28;20176;-81
2022/11/23 12:55:05;;;;;;;1.73;0.90;;;9.40;95.00;;;;;;5104477;28;20270;-81
2022/11/23 12:58:02;;;;;;;1.90;0.70;;;9.40;94.80;;;;;;5098165;28;20243;-81
2022/11/23 13:00:38;;;;;;;1.27;0.70;;;9.20;95.70;;;;;;5104712;28;20275;-81
2022/11/23 13:03:35;;;;;;;1.77;0.87;;;9.00;96.30;;;;;;5104388;28;20536;-81
2022/11/23 13:06:26;;;;;;;1.90;1.07;;;8.90;96.10;;;;;;5106162;28;20207;-81
2022/11/23 13:09:15;;;;;;;2.43;1.17;;;8.90;95.50;;;;;;5104532;28;20180;-80
2022/11/23 13:12:11;;;;;;;1.30;0.70;;;9.00;94.90;;;;;;5104257;28;20169;-80
2022/11/23 13:15:00;;;;;;;2.53;0.73;;;9.00;94.70;;;;;;5104217;28;20205;-81
2022/11/23 13:17:39;;;;;;;2.23;0.60;;;9.10;94.90;;;;;;5103313;28;20231;-82
2022/11/23 13:20:23;;;;;;;2.00;0.70;;;9.10;95.30;;;;;;5104191;28;20178;-81
2022/11/23 13:22:50;;;;;;;1.90;0.80;;;9.00;94.20;;;;;;5104447;28;20179;-80
2022/11/23 13:25:27;;;;;;;1.43;0.83;;;8.80;94.90;;;;;;5104485;28;20178;-81
2022/11/23 13:27:56;;;;;;;0.90;0.60;;;8.70;95.60;;;;;;5106371;28;20261;-81
2022/11/23 13:30:28;;;;;;;2.03;1.00;;;8.70;95.30;;;;;;5105121;28;20173;-81
2022/11/23 13:32:58;;;;;;;1.93;1.00;;;8.60;95.90;;;;;;5107410;28;20221;-80
2022/11/23 13:35:44;;;;;;;2.10;0.70;;;8.60;94.60;;;;;;5108978;28;20175;-80
2022/11/23 13:38:12;;;;;;;2.20;0.97;;;8.50;94.50;;;;;;5108104;28;20263;-81
2022/11/23 13:40:39;;;;;;;2.30;1.63;;;8.50;95.00;;;;;;5111390;28;20173;-80
2022/11/23 13:43:13;;;;;;;1.80;1.00;;;8.50;96.10;;;;;;5108411;28;20171;-80
2022/11/23 13:45:39;;;;;;;2.73;0.60;;;8.50;95.30;;;;;;5101541;28;20255;-81
2022/11/23 13:48:07;;;;;;;2.50;0.90;;;8.40;95.50;;;;;;5102234;28;20224;-80
2022/11/23 13:50:38;;;;;;;2.60;0.80;;;8.40;96.00;;;;;;5102657;28;20189;-80
2022/11/23 13:53:23;;;;;;;2.70;0.90;;;8.30;95.30;;;;;;5103459;28;20220;-80
2022/11/23 13:55:52;;;;;;;1.33;0.70;;;8.30;94.80;;;;;;5082683;28;20190;-80
2022/11/23 13:58:23;;;;;;;3.00;0.90;;;8.30;94.70;;;;;;5084158;28;20236;-82
2022/11/23 14:00:57;;;;;;;2.33;1.50;;;8.20;95.20;;;;;;5081921;28;20178;-82
2022/11/23 14:03:42;;;;;;;3.00;1.37;;;8.20;97.00;;;;;;5081730;28;20174;-82
2022/11/23 14:06:36;;;;;;;2.67;1.40;;;8.20;95.60;;;;;;5082668;28;20200;-84
2022/11/23 14:09:19;;;;;;;2.47;1.30;;;8.10;95.80;;;;;;5075679;28;20202;-84
2022/11/23 14:12:03;;;;;;;2.27;0.97;;;8.10;96.30;;;;;;5082423;28;20584;-82
2022/11/23 14:14:41;;;;;;;5.33;1.97;;;8.00;96.80;;;;;;5081657;28;20184;-83
2022/11/23 14:17:28;;;;;;;5.40;1.80;;;8.00;96.70;;;;;;5082412;28;20203;-83
2022/11/23 14:20:12;;;;;;;2.40;1.30;;;7.90;96.70;;;;;;5081555;28;20199;-83
2022/11/23 14:23:15;;;;;;;3.77;0.70;;;7.90;96.80;;;;;;5081705;28;20204;-83
2022/11/23 14:25:53;;;;;;;3.37;1.23;;;7.80;97.70;;;;;;5080751;28;20197;-83
2022/11/23 14:28:43;;;;;;;1.63;0.70;;;7.70;97.40;;;;;;5080782;28;20208;-83
2022/11/23 14:31:35;;;;;;;5.80;1.93;;;7.70;97.20;;;;;;5080375;28;20496;-83
2022/11/23 14:34:30;;;;;;;2.57;0.87;;;7.70;97.70;;;;;;5066926;28;20185;-83
2022/11/23 14:37:27;;;;;;;7.20;1.10;;;7.60;97.80;;;;;;5079629;28;20210;-81
2022/11/23 14:40:16;;;;;;;5.97;1.07;;;7.60;98.40;;;;;;5086668;28;20185;-79
2022/11/23 14:42:44;;;;;;;2.43;1.47;;;7.50;98.00;;;;;;5077860;28;20177;-80
2022/11/23 14:45:14;;;;;;;3.53;0.97;;;7.40;98.20;;;;;;5079032;28;20186;-80
2022/11/23 14:47:40;;;;;;;2.70;1.10;;;7.40;98.60;;;;;;5076957;28;20199;-80
2022/11/23 14:50:18;;;;;;;3.07;1.20;;;7.40;99.30;;;;;;5078126;28;20177;-80
2022/11/23 14:52:45;;;;;;;1.23;0.80;;;7.30;99.90;;;;;;5078942;28;20157;-80
2022/11/23 14:55:20;;;;;;;2.63;1.53;;;7.30;99.60;;;;;;5077365;28;20173;-80
2022/11/23 14:57:47;;;;;;;1.70;1.30;;;7.20;99.60;;;;;;5077239;28;20712;-80
2022/11/23 15:00:30;;;;;;;5.77;1.30;;;7.20;99.80;;;;;;5077512;28;20181;-79
2022/11/23 15:03:18;;;;;;;2.23;1.00;;;7.20;99.90;;;;;;5076766;28;20620;-80
2022/11/23 15:05:51;;;;;;;5.67;1.37;;;7.10;99.90;;;;;;5093082;28;20205;-80
2022/11/23 15:08:19;;;;;;;1.93;1.20;;;7.00;99.90;;;;;;5076238;28;20209;-80
2022/11/23 15:11:04;;;;;;;3.03;1.27;;;7.00;99.90;;;;;;5075910;28;20230;-80
2022/11/23 15:13:40;;;;;;;5.40;1.30;;;6.90;99.90;;;;;;5075526;28;20451;-80
2022/11/23 15:16:11;;;;;;;4.00;1.30;;;6.80;99.90;;;;;;5075101;28;20199;-80
2022/11/23 15:18:37;;;;;;;4.77;1.80;;;6.70;99.90;;;;;;5072807;28;20173;-80
2022/11/23 15:21:09;;;;;;;12.10;3.67;;;6.60;99.90;;;;;;5072360;28;20180;-80
2022/11/23 15:23:40;;;;;;;7.47;2.73;;;6.50;99.90;;;;;;5078927;28;20187;-80
2022/11/23 15:26:14;;;;;;;8.00;2.57;;;6.50;99.90;;;;;;5084384;28;20498;-80
2022/11/23 15:28:39;;;;;;;12.30;3.00;;;6.40;99.90;;;;;;5082930;28;20476;-80
2022/11/23 15:31:33;;;;;;;6.40;2.47;;;6.30;99.90;;;;;;5083939;28;20273;-80
2022/11/23 15:34:03;;;;;;;4.67;2.90;;;6.10;99.90;;;;;;5091469;28;20199;-80
2022/11/23 15:36:32;;;;;;;11.67;2.80;;;5.90;99.90;;;;;;5091476;28;20208;-80
2022/11/23 15:39:00;;;;;;;7.90;2.20;;;5.80;99.90;;;;;;5081758;28;20173;-80
2022/11/23 15:41:28;;;;;;;4.10;2.20;;;5.70;99.90;;;;;;5081087;28;20815;-80
2022/11/23 15:44:23;;;;;;;7.83;2.43;;;5.60;99.90;;;;;;5079254;28;20422;-80
2022/11/23 15:46:52;;;;;;;3.90;2.30;;;5.50;99.90;;;;;;5078313;28;20504;-80
2022/11/23 15:49:19;;;;;;;6.90;3.60;;;5.40;99.90;;;;;;5078965;28;20502;-80
2022/11/23 15:51:45;;;;;;;10.83;3.63;;;5.30;99.90;;;;;;5078865;28;20419;-80
2022/11/23 15:54:19;;;;;;;10.47;5.10;;;5.20;99.90;;;;;;5078760;28;20407;-79
2022/11/23 15:56:49;;;;;;;12.53;6.77;;;5.10;99.90;;;;;;5080646;28;20197;-80
2022/11/23 15:59:47;;;;;;;11.70;6.07;;;5.10;99.90;;;;;;5080702;28;20437;-80
2022/11/23 16:02:14;;;;;;;10.40;5.93;;;5.00;99.90;;;;;;5083809;28;20439;-80
2022/11/23 16:04:42;;;;;;;16.33;6.57;;;5.10;99.90;;;;;;5080434;28;20403;-80
2022/11/23 16:07:24;;;;;;;16.63;6.50;;;5.00;99.90;;;;;;5080206;28;20445;-80
2022/11/23 16:10:05;;;;;;;11.63;6.47;;;5.00;99.90;;;;;;5082104;28;20410;-80
2022/11/23 16:12:34;;;;;;;11.67;6.87;;;4.90;99.90;;;;;;5080474;28;20426;-80
2022/11/23 16:15:37;;;;;;;9.23;4.60;;;4.80;99.90;;;;;;5083317;28;20431;-80
2022/11/23 16:18:04;;;;;;;8.17;3.70;;;4.70;99.90;;;;;;5082216;28;20454;-79
2022/11/23 16:20:31;;;;;;;9.13;4.00;;;4.70;99.90;;;;;;5082406;28;20887;-80
2022/11/23 16:22:59;;;;;;;14.43;5.43;;;4.50;99.90;;;;;;5083168;28;20418;-80
2022/11/23 16:25:32;;;;;;;26.17;10.67;;;4.30;99.90;;;;;;5083228;28;20494;-80
2022/11/23 16:27:59;;;;;;;16.20;7.03;;;4.30;99.90;;;;;;5085566;28;20410;-80
2022/11/23 16:30:33;;;;;;;17.87;8.23;;;4.30;99.90;;;;;;5082947;28;20418;-80
2022/11/23 16:32:58;;;;;;;25.63;12.63;;;4.20;99.90;;;;;;5084844;28;20448;-80
2022/11/23 16:35:24;;;;;;;18.60;7.30;;;4.10;99.90;;;;;;5083524;28;20800;-80
2022/11/23 16:37:50;;;;;;;9.50;5.47;;;4.10;99.90;;;;;;5084599;28;20650;-80
2022/11/23 16:40:15;;;;;;;15.33;7.97;;;4.00;99.90;;;;;;5083764;28;20626;-79
2022/11/23 16:42:42;;;;;;;22.40;9.90;;;4.00;99.90;;;;;;5083128;28;20173;-80
2022/11/23 16:45:08;;;;;;;21.13;9.83;;;3.90;99.90;;;;;;5084156;28;20177;-80
2022/11/23 16:47:35;;;;;;;15.67;8.53;;;3.90;99.90;;;;;;5083705;28;20431;-80
2022/11/23 16:50:00;;;;;;;19.07;7.43;;;3.80;99.90;;;;;;5081963;28;20935;-80
2022/11/23 16:52:26;;;;;;;11.33;5.20;;;3.80;99.90;;;;;;5080362;28;20407;-80
2022/11/23 16:54:52;;;;;;;6.13;4.53;;;3.80;99.90;;;;;;5081623;28;20172;-81
2022/11/23 16:57:32;;;;;;;9.03;5.03;;;3.70;99.90;;;;;;5081595;28;20674;-81
2022/11/23 17:00:01;;;;;;;8.40;3.57;;;3.60;99.90;;;;;;5080198;28;20169;-80
2022/11/23 17:02:26;;;;;;;13.67;5.37;;;3.60;99.90;;;;;;5081730;28;20407;-80
2022/11/23 17:04:52;;;;;;;18.93;5.37;;;3.50;99.90;;;;;;5080249;28;20411;-81
2022/11/23 17:07:18;;;;;;;13.77;5.60;;;3.50;99.90;;;;;;5079141;28;20625;-80
2022/11/23 17:09:44;;;;;;;11.13;5.33;;;;;;;;;;5078803;28;20264;-80
2022/11/23 17:12:16;;;;;;;16.70;8.00;;;3.50;99.90;;;;;;5081436;28;20199;-80
2022/11/23 17:14:44;;;;;;;7.83;5.80;;;3.40;99.90;;;;;;5089086;28;20180;-81
2022/11/23 17:17:21;;;;;;;7.97;5.40;;;3.40;99.90;;;;;;5098368;28;20612;-81
2022/11/23 17:19:48;;;;;;;15.57;7.37;;;3.30;99.90;;;;;;5098577;28;20854;-81
2022/11/23 17:22:18;;;;;;;11.37;6.37;;;3.30;99.90;;;;;;5100715;28;20418;-81
2022/11/23 17:24:45;;;;;;;6.73;5.10;;;3.30;99.90;;;;;;5100913;28;20748;-81
2022/11/23 17:27:18;;;;;;;15.77;5.90;;;3.20;99.90;;;;;;5101160;28;20436;-81
2022/11/23 17:29:45;;;;;;;12.27;6.03;;;3.30;99.90;;;;;;5101456;28;20394;-81
2022/11/23 17:32:12;;;;;;;10.30;5.30;;;3.30;99.90;;;;;;5101028;28;20418;-81
2022/11/23 17:34:39;;;;;;;8.00;4.93;;;3.30;99.90;;;;;;5098247;28;20427;-80
2022/11/23 17:37:05;;;;;;;9.53;6.10;;;3.40;99.90;;;;;;5097604;28;20991;-80
2022/11/23 17:39:31;;;;;;;13.27;5.90;;;3.40;99.90;;;;;;5098250;28;20422;-80
2022/11/23 17:41:57;;;;;;;13.03;5.40;;;3.50;99.90;;;;;;5099370;28;20410;-81
2022/11/23 17:44:23;;;;;;;8.07;4.97;;;3.50;99.90;;;;;;5099073;28;20498;-79
2022/11/23 17:46:51;;;;;;;9.23;5.93;;;3.50;99.90;;;;;;5098073;28;20210;-80
2022/11/23 17:49:18;;;;;;;8.17;5.87;;;3.60;99.90;;;;;;5098530;28;20652;-80
2022/11/23 17:51:45;;;;;;;9.10;5.97;;;3.60;99.90;;;;;;5098517;28;20476;-80
2022/11/23 17:54:11;;;;;;;9.80;5.70;;;3.60;99.90;;;;;;5096647;28;20423;-80
2022/11/23 17:56:37;;;;;;;10.03;6.47;;;3.70;99.90;;;;;;5098399;28;20863;-80
2022/11/23 17:59:05;;;;;;;7.27;5.47;;;3.70;99.90;;;;;;5097402;28;20484;-81
2022/11/23 18:01:31;;;;;;;9.37;5.40;;;;;;;;;;5097918;28;20406;-80
2022/11/23 18:03:59;;;;;;;11.93;5.17;;;3.70;99.90;;;;;;5097752;28;20489;-80
2022/11/23 18:06:27;;;;;;;7.43;4.60;;;3.80;99.90;;;;;;5095710;28;20438;-80
2022/11/23 18:08:53;;;;;;;7.70;4.97;;;3.80;99.90;;;;;;5099683;28;20425;-79
2022/11/23 18:11:20;;;;;;;7.33;4.77;;;3.70;99.90;;;;;;5100991;28;20410;-80
2022/11/23 18:13:49;;;;;;;10.10;6.37;;;3.80;99.90;;;;;;5100193;28;20204;-80
2022/11/23 18:16:16;;;;;;;11.03;6.33;;;3.80;99.90;;;;;;5100134;28;20462;-80
2022/11/23 18:18:42;;;;;;;6.30;4.80;;;3.90;99.90;;;;;;5100346;28;20224;-80
2022/11/23 18:21:09;;;;;;;5.97;3.20;;;3.90;99.90;;;;;;5100894;28;20889;-80
2022/11/23 18:23:36;;;;;;;8.20;5.10;;;4.00;99.90;;;;;;5101958;28;20183;-80
2022/11/23 18:26:09;;;;;;;10.90;7.83;;;4.00;99.90;;;;;;5100800;28;20211;-81
2022/11/23 18:28:34;;;;;;;63.47;36.97;;;4.20;99.90;;;;;;5100128;28;20486;-80
2022/11/23 18:31:00;;;;;;;6.77;4.00;;;4.20;99.90;;;;;;5100767;28;20211;-80
2022/11/23 18:33:26;;;;;;;4.27;3.20;;;4.50;99.90;;;;;;5099127;28;20191;-80
2022/11/23 18:35:51;;;;;;;6.37;3.20;;;4.70;99.90;;;;;;5101089;28;20221;-80
2022/11/23 18:38:17;;;;;;;6.57;3.97;;;4.80;99.90;;;;;;5102421;28;20310;-81
2022/11/23 18:40:43;;;;;;;9.57;5.33;;;4.80;99.90;;;;;;5103814;28;20165;-80
2022/11/23 18:43:08;;;;;;;7.07;3.87;;;4.80;99.90;;;;;;5102370;28;20172;-81
2022/11/23 18:45:34;;;;;;;5.00;2.40;;;4.90;99.90;;;;;;5102719;28;20176;-80
2022/11/23 18:48:00;;;;;;;3.63;2.70;;;4.90;99.90;;;;;;5103259;28;20267;-80
2022/11/23 18:50:25;;;;;;;3.07;1.93;;;5.10;99.90;;;;;;5104026;28;20187;-80
2022/11/23 18:52:51;;;;;;;2.30;1.70;;;5.20;99.90;;;;;;5103085;28;20224;-80
2022/11/23 18:55:17;;;;;;;1.47;1.30;;;5.20;99.90;;;;;;5103398;28;20187;-80
2022/11/23 18:57:42;;;;;;;3.53;1.40;;;5.10;99.90;;;;;;5103348;28;20207;-82
2022/11/23 19:00:09;;;;;;;2.93;2.10;;;4.90;99.90;;;;;;5102787;28;20230;-81
2022/11/23 19:02:36;;;;;;;3.53;2.20;;;4.60;99.90;;;;;;5102159;28;20180;-81
2022/11/23 19:05:02;;;;;;;2.43;1.77;;;4.40;99.90;;;;;;5103564;28;20406;-81
2022/11/23 19:07:28;;;;;;;2.07;1.70;;;4.20;99.90;;;;;;5101288;28;20456;-81
2022/11/23 19:09:54;;;;;;;1.80;1.50;;;4.00;99.90;;;;;;5103173;28;20210;-81
2022/11/23 19:12:20;;;;;;;4.00;2.00;;;;;;;;;;5101306;28;20194;-81
2022/11/23 19:14:48;;;;;;;3.93;2.90;;;3.70;99.90;;;;;;5103959;28;20168;-81
